createdAt,value
2023-04-11T00:00:08.114Z,4.45
2023-04-11T00:01:09.830Z,4.34
2023-04-11T00:02:11.642Z,4.35
2023-04-11T00:03:13.623Z,4.32
2023-04-11T00:04:17.182Z,4.09
2023-04-11T00:05:18.978Z,4.21
2023-04-11T00:06:20.676Z,4.08
2023-04-11T00:07:22.376Z,4.21
2023-04-11T00:08:24.120Z,4.13
2023-04-11T00:09:25.819Z,3.94
2023-04-11T00:10:27.632Z,3.96
2023-04-11T00:11:29.585Z,3.45
2023-04-11T00:12:31.246Z,4.07
2023-04-11T00:13:32.960Z,4.07
2023-04-11T00:14:34.719Z,3.23
2023-04-11T00:15:36.465Z,3.90
2023-04-11T00:16:38.202Z,3.60
2023-04-11T00:17:39.945Z,3.89
2023-04-11T00:18:41.615Z,3.91
2023-04-11T00:19:43.867Z,3.63
2023-04-11T00:20:45.557Z,3.99
2023-04-11T00:21:47.303Z,4.08
2023-04-11T00:22:48.950Z,2.78
2023-04-11T00:23:52.910Z,3.35
2023-04-11T00:24:54.884Z,3.99
2023-04-11T00:25:56.577Z,3.18
2023-04-11T00:26:58.272Z,4.10
2023-04-11T00:27:59.942Z,3.96
2023-04-11T00:29:01.689Z,3.92
2023-04-11T00:30:05.025Z,4.00
2023-04-11T00:31:07.251Z,4.18
2023-04-11T00:32:09.011Z,3.17
2023-04-11T00:33:10.754Z,4.20
2023-04-11T00:34:12.494Z,4.10
2023-04-11T00:35:14.277Z,4.07
2023-04-11T00:36:16.139Z,3.11
2023-04-11T00:37:18.316Z,4.25
2023-04-11T00:38:20.067Z,4.03
2023-04-11T00:39:22.264Z,3.49
2023-04-11T00:40:23.927Z,4.32
2023-04-11T00:41:25.663Z,4.21
2023-04-11T00:42:27.410Z,4.29
2023-04-11T00:43:29.090Z,4.32
2023-04-11T00:44:30.773Z,4.38
2023-04-11T00:45:33.536Z,4.41
2023-04-11T00:46:35.294Z,4.24
2023-04-11T00:47:37.101Z,4.38
2023-04-11T00:48:38.879Z,4.35
2023-04-11T00:49:41.321Z,4.26
2023-04-11T00:50:43.404Z,3.32
2023-04-11T00:51:45.155Z,3.23
2023-04-11T00:52:49.722Z,4.42
2023-04-11T00:53:51.493Z,4.35
2023-04-11T00:54:53.248Z,4.32
2023-04-11T00:55:55.034Z,3.33
2023-04-11T00:57:02.371Z,4.43
2023-04-11T00:58:04.328Z,4.40
2023-04-11T00:59:06.193Z,4.29
2023-04-11T01:00:08.726Z,3.46
2023-04-11T01:01:10.431Z,4.47
2023-04-11T01:02:12.222Z,3.31
2023-04-11T01:03:14.036Z,3.40
2023-04-11T01:04:16.124Z,4.36
2023-04-11T01:05:18.010Z,4.35
2023-04-11T01:06:20.440Z,4.33
2023-04-11T01:07:24.465Z,4.17
2023-04-11T01:08:26.970Z,4.35
2023-04-11T01:09:29.223Z,4.27
2023-04-11T01:10:31.420Z,4.49
2023-04-11T01:11:34.155Z,4.42
2023-04-11T01:12:38.213Z,4.46
2023-04-11T01:13:41.461Z,4.67
2023-04-11T01:14:43.335Z,4.71
2023-04-11T01:15:45.094Z,4.48
2023-04-11T01:16:47.701Z,4.74
2023-04-11T01:17:49.635Z,4.72
2023-04-11T01:18:51.555Z,4.55
2023-04-11T01:19:53.321Z,4.63
2023-04-11T01:20:55.098Z,4.72
2023-04-11T01:21:58.685Z,4.79
2023-04-11T01:23:02.348Z,4.78
2023-04-11T01:24:04.328Z,4.78
2023-04-11T01:25:06.572Z,3.73
2023-04-11T01:26:08.296Z,4.72
2023-04-11T01:27:10.216Z,4.78
2023-04-11T01:28:11.929Z,4.46
2023-04-11T01:29:13.662Z,4.76
2023-04-11T01:30:15.330Z,4.06
2023-04-11T01:31:17.027Z,4.77
2023-04-11T01:32:18.836Z,3.85
2023-04-11T01:33:20.754Z,4.74
2023-04-11T01:34:25.497Z,4.56
2023-04-11T01:35:27.176Z,4.50
2023-04-11T01:36:30.700Z,4.63
2023-04-11T01:37:32.552Z,3.62
2023-04-11T01:38:34.245Z,4.50
2023-04-11T01:39:36.111Z,4.62
2023-04-11T01:40:38.613Z,4.66
2023-04-11T01:41:41.825Z,4.54
2023-04-11T01:42:44.690Z,3.72
2023-04-11T01:43:46.636Z,3.69
2023-04-11T01:44:50.429Z,4.69
2023-04-11T01:45:52.858Z,3.74
2023-04-11T01:46:54.895Z,4.70
2023-04-11T01:47:56.963Z,4.70
2023-04-11T01:48:59.984Z,4.63
2023-04-11T01:50:01.950Z,4.66
2023-04-11T01:51:22.333Z,4.66
2023-04-11T01:52:24.002Z,4.06
2023-04-11T01:53:25.751Z,4.49
2023-04-11T01:54:27.400Z,4.64
2023-04-11T01:55:29.076Z,4.67
2023-04-11T01:56:30.702Z,4.62
2023-04-11T01:57:32.501Z,3.80
2023-04-11T01:58:34.191Z,4.64
2023-04-11T01:59:36.143Z,3.34
2023-04-11T02:00:37.769Z,4.63
2023-04-11T02:01:43.368Z,3.78
2023-04-11T02:02:45.342Z,3.63
2023-04-11T02:03:47.266Z,4.58
2023-04-11T02:04:48.971Z,3.81
2023-04-11T02:05:50.724Z,4.63
2023-04-11T02:06:52.441Z,4.73
2023-04-11T02:07:54.163Z,4.52
2023-04-11T02:08:56.044Z,4.70
2023-04-11T02:09:58.668Z,4.50
2023-04-11T02:11:00.410Z,3.99
2023-04-11T02:12:02.107Z,4.63
2023-04-11T02:13:03.940Z,4.60
2023-04-11T02:14:05.624Z,4.70
2023-04-11T02:15:07.845Z,4.70
2023-04-11T02:16:11.786Z,4.65
2023-04-11T02:17:13.729Z,4.52
2023-04-11T02:18:15.404Z,4.66
2023-04-11T02:19:17.087Z,3.63
2023-04-11T02:20:18.791Z,4.56
2023-04-11T02:21:20.528Z,4.53
2023-04-11T02:22:22.257Z,3.74
2023-04-11T02:23:24.385Z,3.67
2023-04-11T02:24:28.464Z,4.68
2023-04-11T02:25:33.048Z,4.57
2023-04-11T02:26:34.776Z,4.09
2023-04-11T02:27:36.471Z,4.53
2023-04-11T02:28:38.158Z,4.30
2023-04-11T02:29:39.919Z,3.54
2023-04-11T02:30:41.733Z,4.33
2023-04-11T02:31:43.610Z,3.81
2023-04-11T02:32:45.424Z,4.60
2023-04-11T02:33:47.208Z,4.53
2023-04-11T02:34:48.893Z,4.44
2023-04-11T02:35:50.647Z,4.63
2023-04-11T02:36:52.681Z,4.52
2023-04-11T02:37:54.394Z,4.39
2023-04-11T02:38:56.243Z,4.40
2023-04-11T02:39:58.522Z,4.48
2023-04-11T02:41:00.374Z,4.62
2023-04-11T02:42:02.176Z,3.68
2023-04-11T02:43:04.023Z,3.95
2023-04-11T02:44:05.977Z,4.77
2023-04-11T02:45:11.325Z,4.67
2023-04-11T02:46:13.459Z,4.64
2023-04-11T02:47:15.527Z,4.68
2023-04-11T02:48:17.317Z,4.70
2023-04-11T02:49:19.035Z,4.55
2023-04-11T02:50:20.805Z,4.51
2023-04-11T02:51:22.530Z,4.49
2023-04-11T02:52:24.315Z,4.59
2023-04-11T02:53:26.021Z,3.67
2023-04-11T02:54:27.719Z,4.50
2023-04-11T02:55:29.473Z,3.83
2023-04-11T02:56:31.149Z,4.82
2023-04-11T02:57:32.878Z,4.00
2023-04-11T02:58:34.502Z,4.81
2023-04-11T02:59:36.281Z,4.98
2023-04-11T03:00:37.903Z,4.95
2023-04-11T03:01:39.725Z,4.95
2023-04-11T03:02:41.763Z,5.05
2023-04-11T03:03:44.542Z,4.05
2023-04-11T03:04:46.345Z,4.98
2023-04-11T03:05:48.079Z,4.82
2023-04-11T03:06:49.814Z,4.10
2023-04-11T03:07:51.580Z,5.06
2023-04-11T03:08:53.414Z,5.02
2023-04-11T03:09:55.324Z,3.87
2023-04-11T03:10:57.000Z,4.14
2023-04-11T03:11:58.722Z,4.85
2023-04-11T03:13:00.419Z,4.97
2023-04-11T03:14:02.414Z,4.08
2023-04-11T03:15:04.446Z,4.95
2023-04-11T03:16:06.680Z,4.18
2023-04-11T03:17:08.476Z,4.98
2023-04-11T03:18:10.616Z,4.87
2023-04-11T03:19:12.290Z,3.86
2023-04-11T03:20:13.983Z,4.94
2023-04-11T03:21:15.680Z,4.80
2023-04-11T03:22:17.473Z,4.85
2023-04-11T03:23:19.197Z,4.90
2023-04-11T03:24:20.926Z,4.88
2023-04-11T03:25:22.691Z,4.79
2023-04-11T03:26:24.707Z,4.92
2023-04-11T03:27:26.467Z,4.85
2023-04-11T03:28:28.148Z,4.89
2023-04-11T03:29:29.897Z,4.70
2023-04-11T03:30:31.864Z,4.48
2023-04-11T03:31:33.756Z,4.72
2023-04-11T03:32:35.489Z,4.64
2023-04-11T03:33:37.744Z,3.71
2023-04-11T03:34:39.410Z,4.52
2023-04-11T03:35:41.155Z,4.34
2023-04-11T03:36:42.843Z,4.69
2023-04-11T03:37:44.595Z,3.97
2023-04-11T03:38:46.277Z,4.65
2023-04-11T03:39:47.936Z,4.58
2023-04-11T03:40:49.634Z,4.09
2023-04-11T03:41:51.352Z,4.71
2023-04-11T03:42:53.053Z,3.86
2023-04-11T03:43:54.767Z,4.67
2023-04-11T03:44:56.410Z,4.74
2023-04-11T03:45:58.192Z,4.14
2023-04-11T03:46:59.954Z,4.63
2023-04-11T03:48:01.712Z,4.69
2023-04-11T03:49:03.482Z,4.70
2023-04-11T03:50:07.121Z,4.66
2023-04-11T03:51:08.870Z,3.78
2023-04-11T03:52:10.596Z,4.59
2023-04-11T03:53:12.433Z,4.59
2023-04-11T03:54:14.098Z,4.41
2023-04-11T03:55:15.835Z,4.14
2023-04-11T03:56:17.500Z,3.50
2023-04-11T03:57:19.153Z,4.44
2023-04-11T03:58:20.876Z,4.12
2023-04-11T03:59:22.725Z,4.44
2023-04-11T04:00:24.523Z,4.44
2023-04-11T04:01:26.284Z,4.40
2023-04-11T04:02:28.206Z,4.31
2023-04-11T04:03:30.222Z,4.30
2023-04-11T04:04:33.198Z,4.27
2023-04-11T04:05:34.906Z,4.31
2023-04-11T04:06:36.606Z,3.50
2023-04-11T04:07:38.315Z,4.47
2023-04-11T04:08:40.561Z,4.48
2023-04-11T04:09:42.203Z,4.04
2023-04-11T04:10:43.861Z,4.50
2023-04-11T04:11:45.474Z,4.42
2023-04-11T04:12:47.111Z,4.44
2023-04-11T04:13:48.760Z,4.40
2023-04-11T04:14:50.406Z,4.46
2023-04-11T04:15:52.108Z,3.43
2023-04-11T04:16:53.904Z,4.37
2023-04-11T04:17:55.731Z,4.47
2023-04-11T04:18:57.521Z,4.55
2023-04-11T04:19:59.154Z,4.52
2023-04-11T04:21:00.810Z,4.48
2023-04-11T04:22:02.502Z,3.73
2023-04-11T04:23:04.192Z,4.03
2023-04-11T04:24:06.232Z,3.74
2023-04-11T04:25:08.395Z,4.49
2023-04-11T04:26:10.100Z,4.65
2023-04-11T04:27:12.766Z,3.81
2023-04-11T04:28:14.407Z,4.56
2023-04-11T04:29:16.095Z,4.70
2023-04-11T04:30:18.449Z,4.74
2023-04-11T04:31:20.152Z,4.53
2023-04-11T04:32:23.810Z,4.27
2023-04-11T04:33:27.540Z,4.44
2023-04-11T04:34:29.439Z,3.40
2023-04-11T04:35:31.226Z,3.89
2023-04-11T04:36:32.921Z,4.69
2023-04-11T04:37:34.619Z,4.65
2023-04-11T04:38:36.269Z,4.85
2023-04-11T04:39:37.970Z,4.86
2023-04-11T04:40:39.692Z,4.86
2023-04-11T04:41:41.321Z,4.02
2023-04-11T04:42:43.104Z,4.69
2023-04-11T04:43:44.793Z,3.80
2023-04-11T04:44:46.488Z,4.81
2023-04-11T04:45:48.228Z,4.76
2023-04-11T04:46:58.710Z,4.44
2023-04-11T04:48:00.457Z,3.92
2023-04-11T04:49:06.522Z,4.83
2023-04-11T04:50:08.601Z,4.73
2023-04-11T04:51:10.352Z,4.74
2023-04-11T04:52:15.645Z,4.89
2023-04-11T04:53:17.366Z,4.05
2023-04-11T04:54:19.082Z,4.98
2023-04-11T04:55:20.763Z,4.99
2023-04-11T04:56:22.516Z,3.97
2023-04-11T04:57:28.384Z,4.88
2023-04-11T04:58:30.104Z,4.92
2023-04-11T04:59:31.812Z,4.96
2023-04-11T05:00:33.513Z,4.65
2023-04-11T05:01:35.401Z,4.95
2023-04-11T05:02:37.354Z,4.99
2023-04-11T05:03:39.351Z,4.15
2023-04-11T05:04:41.168Z,4.37
2023-04-11T05:05:42.785Z,5.10
2023-04-11T05:06:44.460Z,5.06
2023-04-11T05:07:46.195Z,4.18
2023-04-11T05:08:47.928Z,4.51
2023-04-11T05:09:49.640Z,4.77
2023-04-11T05:10:51.317Z,5.17
2023-04-11T05:11:53.035Z,5.08
2023-04-11T05:12:55.396Z,5.15
2023-04-11T05:13:57.454Z,5.02
2023-04-11T05:14:59.484Z,5.25
2023-04-11T05:16:01.211Z,5.28
2023-04-11T05:17:03.046Z,4.24
2023-04-11T05:18:04.765Z,5.27
2023-04-11T05:19:06.475Z,5.15
2023-04-11T05:20:08.590Z,5.20
2023-04-11T05:21:10.371Z,5.18
2023-04-11T05:22:12.047Z,4.96
2023-04-11T05:23:13.698Z,5.30
2023-04-11T05:24:15.486Z,4.68
2023-04-11T05:25:17.347Z,5.30
2023-04-11T05:26:19.084Z,4.44
2023-04-11T05:27:20.782Z,5.34
2023-04-11T05:28:22.477Z,5.18
2023-04-11T05:29:24.272Z,5.19
2023-04-11T05:30:26.264Z,4.52
2023-04-11T05:31:28.142Z,4.36
2023-04-11T05:32:29.837Z,5.22
2023-04-11T05:33:31.627Z,5.43
2023-04-11T05:34:33.355Z,4.73
2023-04-11T05:35:35.157Z,5.31
2023-04-11T05:36:36.935Z,5.42
2023-04-11T05:37:38.668Z,4.46
2023-04-11T05:38:41.309Z,5.55
2023-04-11T05:39:43.065Z,4.42
2023-04-11T05:40:44.785Z,4.80
2023-04-11T05:41:46.522Z,5.73
2023-04-11T05:42:48.180Z,5.66
2023-04-11T05:43:50.027Z,5.79
2023-04-11T05:44:51.771Z,5.65
2023-04-11T05:45:53.480Z,5.02
2023-04-11T05:46:55.211Z,5.72
2023-04-11T05:47:56.991Z,5.79
2023-04-11T05:48:59.643Z,5.82
2023-04-11T05:50:01.425Z,5.90
2023-04-11T05:51:03.163Z,5.21
2023-04-11T05:52:05.010Z,5.89
2023-04-11T05:53:07.192Z,5.93
2023-04-11T05:54:08.899Z,5.76
2023-04-11T05:55:11.136Z,5.84
2023-04-11T05:56:12.946Z,5.09
2023-04-11T05:57:14.704Z,5.72
2023-04-11T05:58:16.407Z,6.09
2023-04-11T05:59:21.584Z,6.07
2023-04-11T06:00:27.090Z,5.94
2023-04-11T06:01:28.767Z,6.22
2023-04-11T06:02:30.544Z,6.33
2023-04-11T06:03:32.433Z,5.77
2023-04-11T06:04:34.502Z,6.31
2023-04-11T06:05:36.767Z,6.40
2023-04-11T06:06:38.411Z,6.42
2023-04-11T06:07:40.478Z,5.96
2023-04-11T06:08:42.237Z,6.82
2023-04-11T06:09:44.008Z,6.75
2023-04-11T06:10:45.860Z,6.77
2023-04-11T06:11:47.690Z,5.96
2023-04-11T06:12:49.357Z,6.72
2023-04-11T06:13:51.133Z,6.93
2023-04-11T06:14:52.836Z,6.97
2023-04-11T06:15:54.664Z,6.74
2023-04-11T06:16:56.550Z,7.08
2023-04-11T06:17:58.370Z,7.11
2023-04-11T06:19:00.089Z,7.00
2023-04-11T06:20:03.528Z,6.85
2023-04-11T06:21:06.601Z,5.93
2023-04-11T06:22:08.339Z,6.12
2023-04-11T06:23:10.001Z,6.99
2023-04-11T06:24:11.815Z,6.99
2023-04-11T06:25:13.563Z,6.30
2023-04-11T06:26:15.254Z,7.28
2023-04-11T06:27:17.006Z,7.42
2023-04-11T06:28:18.668Z,7.49
2023-04-11T06:29:20.356Z,7.62
2023-04-11T06:30:22.043Z,7.11
2023-04-11T06:31:23.869Z,7.44
2023-04-11T06:32:25.761Z,6.72
2023-04-11T06:33:27.435Z,7.34
2023-04-11T06:34:29.123Z,7.27
2023-04-11T06:35:30.986Z,6.70
2023-04-11T06:36:34.035Z,7.14
2023-04-11T06:37:35.782Z,7.33
2023-04-11T06:38:37.500Z,7.49
2023-04-11T06:39:39.341Z,7.59
2023-04-11T06:40:41.244Z,7.55
2023-04-11T06:41:43.428Z,7.72
2023-04-11T06:42:45.250Z,6.80
2023-04-11T06:43:47.155Z,7.77
2023-04-11T06:44:48.898Z,7.69
2023-04-11T06:45:50.680Z,7.05
2023-04-11T06:46:52.568Z,7.49
2023-04-11T06:47:54.564Z,6.85
2023-04-11T06:48:56.428Z,6.83
2023-04-11T06:49:58.240Z,6.79
2023-04-11T06:51:00.186Z,7.52
2023-04-11T06:52:02.023Z,7.38
2023-04-11T06:53:03.941Z,6.76
2023-04-11T06:54:05.913Z,7.27
2023-04-11T06:55:08.097Z,7.60
2023-04-11T06:56:10.331Z,7.57
2023-04-11T06:57:12.039Z,6.99
2023-04-11T06:58:13.858Z,6.68
2023-04-11T06:59:15.585Z,7.62
2023-04-11T07:00:17.758Z,7.62
2023-04-11T07:01:19.461Z,7.73
2023-04-11T07:02:21.298Z,6.71
2023-04-11T07:03:23.249Z,7.63
2023-04-11T07:04:25.164Z,7.54
2023-04-11T07:05:26.941Z,6.86
2023-04-11T07:06:28.674Z,7.69
2023-04-11T07:07:30.384Z,7.74
2023-04-11T07:08:32.143Z,7.90
2023-04-11T07:09:33.886Z,7.85
2023-04-11T07:10:35.548Z,7.91
2023-04-11T07:11:37.234Z,7.82
2023-04-11T07:12:38.968Z,7.11
2023-04-11T07:13:40.846Z,7.78
2023-04-11T07:14:42.589Z,8.02
2023-04-11T07:15:44.423Z,8.00
2023-04-11T07:16:46.296Z,7.27
2023-04-11T07:17:51.447Z,7.23
2023-04-11T07:18:55.384Z,7.52
2023-04-11T07:19:57.089Z,7.95
2023-04-11T07:20:58.958Z,7.59
2023-04-11T07:22:00.653Z,7.51
2023-04-11T07:23:02.380Z,8.50
2023-04-11T07:24:05.751Z,8.45
2023-04-11T07:25:07.612Z,8.40
2023-04-11T07:26:09.862Z,8.45
2023-04-11T07:27:11.499Z,8.02
2023-04-11T07:28:13.213Z,8.52
2023-04-11T07:29:15.101Z,8.42
2023-04-11T07:30:17.254Z,8.42
2023-04-11T07:31:19.074Z,8.61
2023-04-11T07:32:20.840Z,8.60
2023-04-11T07:33:22.506Z,8.84
2023-04-11T07:34:24.365Z,8.73
2023-04-11T07:35:26.155Z,8.94
2023-04-11T07:36:27.860Z,8.98
2023-04-11T07:37:29.575Z,8.21
2023-04-11T07:38:31.244Z,9.21
2023-04-11T07:39:34.406Z,8.40
2023-04-11T07:40:36.102Z,9.39
2023-04-11T07:41:38.340Z,8.54
2023-04-11T07:42:41.039Z,9.36
2023-04-11T07:43:42.712Z,8.44
2023-04-11T07:44:44.416Z,9.61
2023-04-11T07:45:46.206Z,9.49
2023-04-11T07:46:47.903Z,9.83
2023-04-11T07:47:49.769Z,8.99
2023-04-11T07:48:51.554Z,9.68
2023-04-11T07:49:53.324Z,9.40
2023-04-11T07:50:55.329Z,9.50
2023-04-11T07:51:57.175Z,9.51
2023-04-11T07:52:58.947Z,8.58
2023-04-11T07:54:00.693Z,9.67
2023-04-11T07:55:02.835Z,9.55
2023-04-11T07:56:04.836Z,9.51
2023-04-11T07:57:06.594Z,9.21
2023-04-11T07:58:08.564Z,10.15
2023-04-11T07:59:10.330Z,10.23
2023-04-11T08:00:19.908Z,10.09
2023-04-11T08:01:23.213Z,10.05
2023-04-11T08:02:25.298Z,8.84
2023-04-11T08:03:27.561Z,10.37
2023-04-11T08:04:33.120Z,10.54
2023-04-11T08:05:36.694Z,10.60
2023-04-11T08:06:38.405Z,10.63
2023-04-11T08:07:40.160Z,10.73
2023-04-11T08:08:41.850Z,10.78
2023-04-11T08:09:43.678Z,10.83
2023-04-11T08:10:45.478Z,9.78
2023-04-11T08:11:47.133Z,10.48
2023-04-11T08:12:49.319Z,10.48
2023-04-11T08:13:50.972Z,10.48
2023-04-11T08:14:52.663Z,10.35
2023-04-11T08:15:54.444Z,10.22
2023-04-11T08:16:56.212Z,10.23
2023-04-11T08:17:58.029Z,10.12
2023-04-11T08:18:59.754Z,9.78
2023-04-11T08:20:02.252Z,8.88
2023-04-11T08:21:04.488Z,9.11
2023-04-11T08:22:06.202Z,9.68
2023-04-11T08:23:08.010Z,9.63
2023-04-11T08:24:09.902Z,9.10
2023-04-11T08:25:12.463Z,9.90
2023-04-11T08:26:14.180Z,10.17
2023-04-11T08:27:15.920Z,10.20
2023-04-11T08:28:17.617Z,10.27
2023-04-11T08:29:19.356Z,10.44
2023-04-11T08:30:21.128Z,10.74
2023-04-11T08:31:23.054Z,10.23
2023-04-11T08:32:25.394Z,10.16
2023-04-11T08:33:27.196Z,11.07
2023-04-11T08:34:29.044Z,11.19
2023-04-11T08:35:30.965Z,11.24
2023-04-11T08:36:32.765Z,11.42
2023-04-11T08:37:34.537Z,11.56
2023-04-11T08:38:37.059Z,11.74
2023-04-11T08:39:39.104Z,11.59
2023-04-11T08:40:40.876Z,11.56
2023-04-11T08:41:42.738Z,11.13
2023-04-11T08:42:44.742Z,11.28
2023-04-11T08:43:46.444Z,11.50
2023-04-11T08:44:59.219Z,11.44
2023-04-11T08:46:04.647Z,11.92
2023-04-11T08:47:07.613Z,11.68
2023-04-11T08:48:09.774Z,11.50
2023-04-11T08:49:11.516Z,10.81
2023-04-11T08:50:13.264Z,11.48
2023-04-11T08:51:22.389Z,11.49
2023-04-11T08:52:25.330Z,11.66
2023-04-11T08:53:28.071Z,11.83
2023-04-11T08:54:30.443Z,11.22
2023-04-11T08:55:35.031Z,11.57
2023-04-11T08:56:36.772Z,11.30
2023-04-11T08:57:38.527Z,11.95
2023-04-11T08:58:41.898Z,12.17
2023-04-11T08:59:51.776Z,12.15
2023-04-11T09:00:53.511Z,12.25
2023-04-11T09:02:07.889Z,12.06
2023-04-11T09:03:12.220Z,11.33
2023-04-11T09:04:14.064Z,12.08
2023-04-11T09:05:29.029Z,11.94
2023-04-11T09:06:31.716Z,11.48
2023-04-11T09:07:48.968Z,12.41
2023-04-11T09:08:50.690Z,12.45
2023-04-11T09:09:52.436Z,12.45
2023-04-11T09:11:01.535Z,11.49
2023-04-11T09:12:03.998Z,12.45
2023-04-11T09:13:32.097Z,12.34
2023-04-11T09:14:34.221Z,12.21
2023-04-11T09:15:35.994Z,10.98
2023-04-11T09:16:53.132Z,11.41
2023-04-11T09:17:57.592Z,11.36
2023-04-11T09:19:00.802Z,11.22
2023-04-11T09:20:16.287Z,11.17
2023-04-11T09:21:19.357Z,11.00
2023-04-11T09:22:21.097Z,10.85
2023-04-11T09:23:23.862Z,10.00
2023-04-11T09:24:27.626Z,10.72
2023-04-11T09:25:29.431Z,9.77
2023-04-11T09:26:31.099Z,10.77
2023-04-11T09:27:32.809Z,10.65
2023-04-11T09:28:45.034Z,10.52
2023-04-11T09:29:48.598Z,10.43
2023-04-11T09:30:51.971Z,10.36
2023-04-11T09:31:53.708Z,10.13
2023-04-11T09:32:55.470Z,10.30
2023-04-11T09:33:59.965Z,10.10
2023-04-11T09:35:18.944Z,10.09
2023-04-11T09:36:23.313Z,10.39
2023-04-11T09:37:25.046Z,10.47
2023-04-11T09:38:31.787Z,9.74
2023-04-11T09:39:33.545Z,10.15
2023-04-11T09:40:43.373Z,10.17
2023-04-11T09:41:45.528Z,10.25
2023-04-11T09:42:48.555Z,10.00
2023-04-11T09:43:54.952Z,10.04
2023-04-11T09:44:57.101Z,10.12
2023-04-11T09:46:09.639Z,9.13
2023-04-11T09:47:11.580Z,10.02
2023-04-11T09:48:13.677Z,10.09
2023-04-11T09:49:15.499Z,9.94
2023-04-11T09:50:17.586Z,10.36
2023-04-11T09:51:34.121Z,10.44
2023-04-11T09:52:36.969Z,10.39
2023-04-11T09:53:38.886Z,10.48
2023-04-11T09:54:40.706Z,9.85
2023-04-11T09:55:42.445Z,10.72
2023-04-11T09:56:44.355Z,10.65
2023-04-11T09:57:48.555Z,10.67
2023-04-11T09:58:50.978Z,9.96
2023-04-11T09:59:52.865Z,10.66
2023-04-11T10:00:56.057Z,11.11
2023-04-11T10:01:57.919Z,11.03
2023-04-11T10:02:59.981Z,11.09
2023-04-11T10:04:02.011Z,11.36
2023-04-11T10:05:04.769Z,11.36
2023-04-11T10:06:11.968Z,11.44
2023-04-11T10:07:14.814Z,10.46
2023-04-11T10:08:31.035Z,11.13
2023-04-11T10:09:33.182Z,11.35
2023-04-11T10:10:36.078Z,11.52
2023-04-11T10:11:41.719Z,11.44
2023-04-11T10:12:43.606Z,11.81
2023-04-11T10:13:46.784Z,11.96
2023-04-11T10:14:48.978Z,11.26
2023-04-11T10:16:14.009Z,11.69
2023-04-11T10:17:22.531Z,11.60
2023-04-11T10:18:25.565Z,12.19
2023-04-11T10:19:27.248Z,11.89
2023-04-11T10:20:31.765Z,13.08
2023-04-11T10:21:33.469Z,13.51
2023-04-11T10:22:41.406Z,13.91
2023-04-11T10:24:09.289Z,13.86
2023-04-11T10:25:20.962Z,13.97
2023-04-11T10:26:59.146Z,14.30
2023-04-11T10:28:01.317Z,13.60
2023-04-11T10:29:03.274Z,13.30
2023-04-11T10:30:05.510Z,12.58
2023-04-11T10:31:10.918Z,13.09
2023-04-11T10:32:15.432Z,13.56
2023-04-11T10:33:20.693Z,12.95
2023-04-11T10:34:22.470Z,14.42
2023-04-11T10:35:24.464Z,14.63
2023-04-11T10:36:26.166Z,15.07
2023-04-11T10:37:35.222Z,14.01
2023-04-11T10:38:42.723Z,14.91
2023-04-11T10:39:50.497Z,15.25
2023-04-11T10:41:14.738Z,15.64
2023-04-11T10:42:29.212Z,15.78
2023-04-11T10:43:30.971Z,16.06
2023-04-11T10:44:32.687Z,16.44
2023-04-11T10:45:34.558Z,16.75
2023-04-11T10:46:44.990Z,16.41
2023-04-11T10:47:58.962Z,15.24
2023-04-11T10:49:02.501Z,14.65
2023-04-11T10:50:04.608Z,14.19
2023-04-11T10:51:23.460Z,13.41
2023-04-11T10:52:25.273Z,13.52
2023-04-11T10:53:34.545Z,13.31
2023-04-11T10:54:36.232Z,12.53
2023-04-11T10:55:48.888Z,13.03
2023-04-11T10:56:54.855Z,12.65
2023-04-11T10:58:18.933Z,12.68
2023-04-11T10:59:32.775Z,12.38
2023-04-11T11:00:46.777Z,12.11
2023-04-11T11:01:55.096Z,11.92
2023-04-11T11:02:57.825Z,12.09
2023-04-11T11:03:59.976Z,11.26
2023-04-11T11:05:02.470Z,11.87
2023-04-11T11:06:09.128Z,11.20
2023-04-11T11:07:14.946Z,11.86
2023-04-11T11:08:39.744Z,11.73
2023-04-11T11:09:41.414Z,11.12
2023-04-11T11:10:45.152Z,11.93
2023-04-11T11:12:12.156Z,11.36
2023-04-11T11:13:17.103Z,12.23
2023-04-11T11:14:28.768Z,12.16
2023-04-11T11:15:34.186Z,12.52
2023-04-11T11:16:36.468Z,12.63
2023-04-11T11:17:38.337Z,12.71
2023-04-11T11:18:40.269Z,12.62
2023-04-11T11:19:46.292Z,12.93
2023-04-11T11:20:48.124Z,12.89
2023-04-11T11:21:51.243Z,13.18
2023-04-11T11:23:06.934Z,13.08
2023-04-11T11:24:08.696Z,13.27
2023-04-11T11:25:10.981Z,13.06
2023-04-11T11:26:12.745Z,12.98
2023-04-11T11:27:22.445Z,12.26
2023-04-11T11:28:24.634Z,12.71
2023-04-11T11:29:38.565Z,12.83
2023-04-11T11:30:51.661Z,12.89
2023-04-11T11:31:54.711Z,12.87
2023-04-11T11:32:56.619Z,12.63
2023-04-11T11:34:08.854Z,12.06
2023-04-11T11:35:20.481Z,12.59
2023-04-11T11:36:22.356Z,12.57
2023-04-11T11:37:24.185Z,12.73
2023-04-11T11:38:27.833Z,13.03
2023-04-11T11:39:31.061Z,12.94
2023-04-11T11:40:32.790Z,13.06
2023-04-11T11:41:35.326Z,12.58
2023-04-11T11:42:37.159Z,12.77
2023-04-11T11:43:38.976Z,12.85
2023-04-11T11:44:40.832Z,12.71
2023-04-11T11:45:43.356Z,11.96
2023-04-11T11:47:03.107Z,13.01
2023-04-11T11:48:04.978Z,13.10
2023-04-11T11:49:08.476Z,13.05
2023-04-11T11:50:10.581Z,13.09
2023-04-11T11:51:12.270Z,12.67
2023-04-11T11:52:40.052Z,11.76
2023-04-11T11:53:41.771Z,12.35
2023-04-11T11:54:47.316Z,12.51
2023-04-11T11:55:49.491Z,11.69
2023-04-11T11:56:51.863Z,11.60
2023-04-11T11:57:53.854Z,12.37
2023-04-11T11:58:55.755Z,13.17
2023-04-11T12:00:00.826Z,13.64
2023-04-11T12:01:02.646Z,14.34
2023-04-11T12:02:04.393Z,13.49
2023-04-11T12:03:08.475Z,14.51
2023-04-11T12:04:10.483Z,13.63
2023-04-11T12:05:12.793Z,13.41
2023-04-11T12:06:14.619Z,13.83
2023-04-11T12:07:21.639Z,14.45
2023-04-11T12:08:24.693Z,13.56
2023-04-11T12:09:30.789Z,14.12
2023-04-11T12:10:43.253Z,13.10
2023-04-11T12:11:45.024Z,13.79
2023-04-11T12:14:21.836Z,13.14
2023-04-11T12:15:24.060Z,12.11
2023-04-11T12:16:25.931Z,12.88
2023-04-11T12:17:36.301Z,12.69
2023-04-11T12:18:42.040Z,12.39
2023-04-11T12:19:43.711Z,12.40
2023-04-11T12:20:45.429Z,11.75
2023-04-11T12:21:47.141Z,12.20
2023-04-11T12:22:48.890Z,11.97
2023-04-11T12:23:50.529Z,12.03
2023-04-11T12:25:10.800Z,12.89
2023-04-11T12:26:12.466Z,12.25
2023-04-11T12:27:14.217Z,12.96
2023-04-11T12:28:16.045Z,13.39
2023-04-11T12:29:17.762Z,13.71
2023-04-11T12:30:19.630Z,13.61
2023-04-11T12:31:21.477Z,12.93
2023-04-11T12:32:23.230Z,13.44
2023-04-11T12:33:25.004Z,13.18
2023-04-11T12:34:26.655Z,13.42
2023-04-11T12:35:29.544Z,13.33
2023-04-11T12:37:34.007Z,13.39
2023-04-11T12:38:35.874Z,12.10
2023-04-11T12:39:37.605Z,12.37
2023-04-11T12:40:39.299Z,13.12
2023-04-11T12:41:41.004Z,13.57
2023-04-11T12:42:55.252Z,13.59
2023-04-11T12:43:58.024Z,12.73
2023-04-11T12:44:59.896Z,13.42
2023-04-11T12:46:01.530Z,13.63
2023-04-11T12:47:03.348Z,13.61
2023-04-11T12:48:05.375Z,13.23
2023-04-11T12:49:07.145Z,13.77
2023-04-11T12:50:09.983Z,13.72
2023-04-11T12:51:11.748Z,13.53
2023-04-11T12:52:13.502Z,13.54
2023-04-11T12:53:15.255Z,14.27
2023-04-11T12:54:17.002Z,14.60
2023-04-11T12:55:18.806Z,14.52
2023-04-11T12:56:20.595Z,15.25
2023-04-11T12:57:22.552Z,15.22
2023-04-11T12:58:24.257Z,15.23
2023-04-11T12:59:26.393Z,15.10
2023-04-11T13:00:28.646Z,14.83
2023-04-11T13:01:30.513Z,14.50
2023-04-11T13:02:41.682Z,13.85
2023-04-11T13:03:45.509Z,13.77
2023-04-11T13:04:51.957Z,13.56
2023-04-11T13:05:53.954Z,13.40
2023-04-11T13:06:55.985Z,13.23
2023-04-11T13:07:57.828Z,13.12
2023-04-11T13:08:59.605Z,12.30
2023-04-11T13:10:03.052Z,12.75
2023-04-11T13:11:04.914Z,12.65
2023-04-11T13:12:06.915Z,12.71
2023-04-11T13:13:17.945Z,11.87
2023-04-11T13:14:20.662Z,12.64
2023-04-11T13:15:22.456Z,12.64
2023-04-11T13:16:24.322Z,12.72
2023-04-11T13:17:26.134Z,12.05
2023-04-11T13:18:27.862Z,12.24
2023-04-11T13:19:29.631Z,12.70
2023-04-11T13:20:31.362Z,12.91
2023-04-11T13:21:33.120Z,13.32
2023-04-11T13:22:34.821Z,13.58
2023-04-11T13:23:36.567Z,13.93
2023-04-11T13:24:38.241Z,12.87
2023-04-11T13:25:39.934Z,13.67
2023-04-11T13:26:41.630Z,13.66
2023-04-11T13:27:43.343Z,14.20
2023-04-11T13:28:45.099Z,13.89
2023-04-11T13:29:46.756Z,13.65
2023-04-11T13:30:48.459Z,13.90
2023-04-11T13:31:50.261Z,13.49
2023-04-11T13:32:51.976Z,13.61
2023-04-11T13:33:53.947Z,13.30
2023-04-11T13:34:55.605Z,13.31
2023-04-11T13:35:57.600Z,13.27
2023-04-11T13:36:59.370Z,12.47
2023-04-11T13:38:01.080Z,12.77
2023-04-11T13:39:02.927Z,12.79
2023-04-11T13:40:05.029Z,13.02
2023-04-11T13:41:06.979Z,12.94
2023-04-11T13:42:08.973Z,12.95
2023-04-11T13:43:10.679Z,12.86
2023-04-11T13:44:12.488Z,12.30
2023-04-11T13:45:14.270Z,13.13
2023-04-11T13:46:16.352Z,12.38
2023-04-11T13:47:18.164Z,13.31
2023-04-11T13:48:19.910Z,12.72
2023-04-11T13:49:21.710Z,12.40
2023-04-11T13:50:23.876Z,13.18
2023-04-11T13:51:25.660Z,13.23